Time,TemperatureF,DewpointF,PressureIn,WindDirection,WindDirectionDegrees,WindSpeedMPH,WindSpeedGustMPH,Humidity,HourlyPrecipIn,Conditions,Clouds,dailyrainin,SolarRadiationWatts/m^2,SoftwareType,DateUTC
2013-07-17 00:01:00,72.0,70.2,30.30,NW,321,0.0,0.0,94,0.00,,,0.00,0,Wunderground v.1.15,2013-07-17 04:01:00,
2013-07-17 00:02:00,72.0,70.2,30.30,NW,321,0.0,0.0,94,0.00,,,0.00,0,Wunderground v.1.15,2013-07-17 04:02:00,
2013-07-17 00:03:00,72.0,70.2,30.30,NW,321,0.0,0.0,94,0.00,,,0.00,0,Wunderground v.1.15,2013-07-17 04:03:00,
2013-07-17 00:04:00,71.9,70.1,30.30,NW,321,0.0,0.0,94,0.00,,,0.00,0,Wunderground v.1.15,2013-07-17 04:04:00,
2013-07-17 00:05:00,71.9,70.1,30.30,NW,321,0.0,0.0,94,0.00,,,0.00,0,Wunderground v.1.15,2013-07-17 04:05:00,
2013-07-17 00:10:00,71.8,70.0,30.29,NW,321,0.0,0.0,94,0.00,,,0.00,0,Wunderground v.1.15,2013-07-17 04:10:00,
2013-07-17 00:16:00,71.6,69.8,30.29,NW,321,0.0,0.0,94,0.00,,,0.00,0,Wunderground v.1.15,2013-07-17 04:16:00,
2013-07-17 00:22:00,71.6,69.8,30.29,NW,321,0.0,0.0,94,0.00,,,0.00,0,Wunderground v.1.15,2013-07-17 04:22:00,
2013-07-17 00:28:00,71.5,69.7,30.29,NW,321,0.0,0.0,94,0.00,,,0.00,0,Wunderground v.1.15,2013-07-17 04:28:00,
2013-07-17 00:34:00,71.3,69.5,30.29,NW,321,0.0,0.0,94,0.00,,,0.00,0,Wunderground v.1.15,2013-07-17 04:34:00,
2013-07-17 00:40:00,71.2,69.7,30.29,NW,321,0.0,0.0,95,0.00,,,0.00,0,Wunderground v.1.15,2013-07-17 04:40:00,
2013-07-17 00:46:00,71.2,69.7,30.29,NW,321,0.0,0.0,95,0.00,,,0.00,0,Wunderground v.1.15,2013-07-17 04:46:00,
2013-07-17 00:51:00,71.1,69.6,30.28,NW,321,0.0,0.0,95,0.00,,,0.00,0,Wunderground v.1.15,2013-07-17 04:51:00,
2013-07-17 00:57:00,71.2,69.7,30.28,NW,321,0.0,0.0,95,0.00,,,0.00,0,Wunderground v.1.15,2013-07-17 04:57:00,
2013-07-17 01:03:00,71.2,69.7,30.28,NW,321,0.0,0.0,95,0.00,,,0.00,0,Wunderground v.1.15,2013-07-17 05:03:00,
2013-07-17 01:04:00,71.2,69.7,30.28,NW,321,0.0,0.0,95,0.00,,,0.00,0,Wunderground v.1.15,2013-07-17 05:04:00,
2013-07-17 01:09:00,71.1,69.9,30.28,NW,321,0.0,0.0,96,0.00,,,0.00,0,Wunderground v.1.15,2013-07-17 05:09:00,
2013-07-17 01:15:00,71.1,69.9,30.28,NW,321,0.0,0.0,96,0.00,,,0.00,0,Wunderground v.1.15,2013-07-17 05:15:00,
2013-07-17 01:21:00,71.0,69.8,30.28,NW,321,0.0,0.0,96,0.00,,,0.00,0,Wunderground v.1.15,2013-07-17 05:21:00,
2013-07-17 01:27:00,70.9,69.7,30.27,NW,321,0.0,0.0,96,0.00,,,0.00,0,Wunderground v.1.15,2013-07-17 05:27:00,
2013-07-17 01:33:00,70.9,69.7,30.28,NW,321,0.0,0.0,96,0.00,,,0.00,0,Wunderground v.1.15,2013-07-17 05:33:00,
2013-07-17 01:39:00,70.9,69.7,30.28,NW,321,0.0,0.0,96,0.00,,,0.00,0,Wunderground v.1.15,2013-07-17 05:39:00,
2013-07-17 01:44:00,70.8,69.6,30.28,NW,321,0.0,0.0,96,0.00,,,0.00,0,Wunderground v.1.15,2013-07-17 05:44:00,
2013-07-17 01:50:00,70.8,69.6,30.28,NW,321,0.0,0.0,96,0.00,,,0.00,0,Wunderground v.1.15,2013-07-17 05:50:00,
2013-07-17 01:56:00,70.7,69.5,30.28,NW,321,0.0,0.0,96,0.00,,,0.00,0,Wunderground v.1.15,2013-07-17 05:56:00,
2013-07-17 02:01:00,70.7,69.5,30.27,NW,321,0.0,0.0,96,0.00,,,0.00,0,Wunderground v.1.15,2013-07-17 06:01:00,
2013-07-17 02:06:00,70.6,69.4,30.28,NW,321,0.0,0.0,96,0.00,,,0.00,0,Wunderground v.1.15,2013-07-17 06:06:00,
2013-07-17 02:11:00,70.5,69.3,30.28,NW,321,0.0,0.0,96,0.00,,,0.00,0,Wunderground v.1.15,2013-07-17 06:11:00,
2013-07-17 02:16:00,70.5,69.6,30.27,NW,321,0.0,0.0,97,0.00,,,0.00,0,Wunderground v.1.15,2013-07-17 06:16:00,
2013-07-17 02:21:00,70.4,69.5,30.27,NW,321,0.0,0.0,97,0.00,,,0.00,0,Wunderground v.1.15,2013-07-17 06:21:00,
2013-07-17 02:26:00,70.3,69.1,30.27,NW,321,0.0,0.0,96,0.00,,,0.00,0,Wunderground v.1.15,2013-07-17 06:26:00,
2013-07-17 02:31:00,70.0,68.8,30.27,NW,321,0.0,0.0,96,0.00,,,0.00,0,Wunderground v.1.15,2013-07-17 06:31:00,
2013-07-17 02:36:00,69.9,68.7,30.27,NW,321,0.0,0.0,96,0.00,,,0.00,0,Wunderground v.1.15,2013-07-17 06:36:00,
2013-07-17 02:41:00,69.8,68.9,30.27,NW,321,0.0,0.0,97,0.00,,,0.00,0,Wunderground v.1.15,2013-07-17 06:41:00,
2013-07-17 02:46:00,69.6,68.4,30.27,NW,321,0.0,0.0,96,0.00,,,0.00,0,Wunderground v.1.15,2013-07-17 06:46:00,
2013-07-17 02:51:00,69.4,68.2,30.27,NW,321,0.0,0.0,96,0.00,,,0.00,0,Wunderground v.1.15,2013-07-17 06:51:00,
2013-07-17 02:56:00,69.3,68.1,30.27,NW,321,0.0,0.0,96,0.00,,,0.00,0,Wunderground v.1.15,2013-07-17 06:56:00,
2013-07-17 03:01:00,69.2,68.0,30.28,NW,321,0.0,0.0,96,0.00,,,0.00,0,Wunderground v.1.15,2013-07-17 07:01:00,
2013-07-17 03:06:00,69.1,68.2,30.27,NW,321,0.0,0.0,97,0.00,,,0.00,0,Wunderground v.1.15,2013-07-17 07:06:00,
2013-07-17 03:11:00,68.9,67.7,30.27,NW,321,0.0,0.0,96,0.00,,,0.00,0,Wunderground v.1.15,2013-07-17 07:11:00,
2013-07-17 03:16:00,68.8,67.6,30.27,NW,321,0.0,0.0,96,0.00,,,0.00,0,Wunderground v.1.15,2013-07-17 07:16:00,
2013-07-17 03:21:00,68.7,67.5,30.27,NW,321,0.0,0.0,96,0.00,,,0.00,0,Wunderground v.1.15,2013-07-17 07:21:00,
2013-07-17 03:27:00,68.8,67.9,30.27,NW,321,0.0,0.0,97,0.00,,,0.00,0,Wunderground v.1.15,2013-07-17 07:27:00,
2013-07-17 03:32:00,68.8,67.9,30.27,NW,321,0.0,0.0,97,0.00,,,0.00,0,Wunderground v.1.15,2013-07-17 07:32:00,
2013-07-17 03:37:00,68.8,67.9,30.27,NW,321,0.0,0.0,97,0.00,,,0.00,0,Wunderground v.1.15,2013-07-17 07:37:00,
2013-07-17 03:42:00,69.0,68.1,30.26,NW,321,0.0,0.0,97,0.00,,,0.00,0,Wunderground v.1.15,2013-07-17 07:42:00,
2013-07-17 03:47:00,69.1,68.2,30.26,NW,321,0.0,0.0,97,0.00,,,0.00,0,Wunderground v.1.15,2013-07-17 07:47:00,
2013-07-17 03:52:00,69.2,68.3,30.26,NW,321,0.0,0.0,97,0.00,,,0.00,0,Wunderground v.1.15,2013-07-17 07:52:00,
2013-07-17 03:57:00,69.3,68.4,30.26,NW,321,0.0,0.0,97,0.00,,,0.00,0,Wunderground v.1.15,2013-07-17 07:57:00,
2013-07-17 04:02:00,69.3,68.4,30.26,NW,321,0.0,0.0,97,0.00,,,0.00,0,Wunderground v.1.15,2013-07-17 08:02:00,
2013-07-17 04:07:00,69.3,68.4,30.26,NW,321,0.0,0.0,97,0.00,,,0.00,0,Wunderground v.1.15,2013-07-17 08:07:00,
2013-07-17 04:12:00,69.2,68.3,30.27,NW,321,0.0,0.0,97,0.00,,,0.00,0,Wunderground v.1.15,2013-07-17 08:12:00,
2013-07-17 04:17:00,69.2,68.3,30.27,ENE,67,0.0,1.0,97,0.00,,,0.00,0,Wunderground v.1.15,2013-07-17 08:17:00,
2013-07-17 04:22:00,68.8,67.9,30.27,ENE,70,0.0,2.0,97,0.00,,,0.00,0,Wunderground v.1.15,2013-07-17 08:22:00,
2013-07-17 04:27:00,68.5,67.6,30.27,ENE,71,0.0,2.0,97,0.00,,,0.00,0,Wunderground v.1.15,2013-07-17 08:27:00,
2013-07-17 04:32:00,68.4,67.5,30.27,ENE,71,0.0,1.0,97,0.00,,,0.00,0,Wunderground v.1.15,2013-07-17 08:32:00,
2013-07-17 04:37:00,68.4,67.5,30.27,ENE,71,0.0,1.0,97,0.00,,,0.00,0,Wunderground v.1.15,2013-07-17 08:37:00,
2013-07-17 04:42:00,68.3,67.4,30.27,ENE,71,0.0,0.0,97,0.00,,,0.00,0,Wunderground v.1.15,2013-07-17 08:42:00,
2013-07-17 04:47:00,68.3,67.4,30.27,ENE,71,0.0,0.0,97,0.00,,,0.00,0,Wunderground v.1.15,2013-07-17 08:47:00,
2013-07-17 04:52:00,68.4,67.5,30.27,ENE,71,0.0,0.0,97,0.00,,,0.00,0,Wunderground v.1.15,2013-07-17 08:52:00,
2013-07-17 04:57:00,68.4,67.5,30.27,ENE,71,0.0,0.0,97,0.00,,,0.00,0,Wunderground v.1.15,2013-07-17 08:57:00,
2013-07-17 05:02:00,68.4,67.5,30.27,ENE,71,0.0,0.0,97,0.00,,,0.00,0,Wunderground v.1.15,2013-07-17 09:02:00,
2013-07-17 05:07:00,68.4,67.8,30.28,ENE,71,0.0,1.0,98,0.00,,,0.00,0,Wunderground v.1.15,2013-07-17 09:07:00,
2013-07-17 05:12:00,68.4,67.8,30.28,ENE,71,0.0,0.0,98,0.00,,,0.01,0,Wunderground v.1.15,2013-07-17 09:12:00,
2013-07-17 05:17:00,68.3,67.7,30.28,ENE,71,0.0,0.0,98,0.00,,,0.01,0,Wunderground v.1.15,2013-07-17 09:17:00,
2013-07-17 05:22:00,68.4,67.8,30.28,ENE,71,0.0,0.0,98,0.00,,,0.01,0,Wunderground v.1.15,2013-07-17 09:22:00,
2013-07-17 05:27:00,68.4,67.8,30.28,ENE,71,0.0,0.0,98,0.00,,,0.01,0,Wunderground v.1.15,2013-07-17 09:27:00,
2013-07-17 05:32:00,68.4,67.8,30.28,ENE,71,0.0,0.0,98,0.00,,,0.01,0,Wunderground v.1.15,2013-07-17 09:32:00,
2013-07-17 05:37:00,68.4,67.8,30.28,ENE,71,0.0,0.0,98,0.00,,,0.01,0,Wunderground v.1.15,2013-07-17 09:37:00,
2013-07-17 05:42:00,68.4,67.8,30.28,ENE,71,0.0,0.0,98,0.00,,,0.01,0,Wunderground v.1.15,2013-07-17 09:42:00,
2013-07-17 05:47:00,68.4,67.8,30.28,ENE,71,0.0,0.0,98,0.00,,,0.01,0,Wunderground v.1.15,2013-07-17 09:47:00,
2013-07-17 05:52:00,68.3,67.7,30.28,ENE,71,0.0,0.0,98,0.00,,,0.01,0,Wunderground v.1.15,2013-07-17 09:52:00,
2013-07-17 05:57:00,68.3,67.7,30.28,ENE,71,0.0,0.0,98,0.00,,,0.01,0,Wunderground v.1.15,2013-07-17 09:57:00,
2013-07-17 06:02:00,68.3,67.7,30.28,ENE,71,0.0,0.0,98,0.00,,,0.01,0,Wunderground v.1.15,2013-07-17 10:02:00,
2013-07-17 06:07:00,68.2,67.6,30.28,ENE,71,0.0,0.0,98,0.00,,,0.01,0,Wunderground v.1.15,2013-07-17 10:07:00,
2013-07-17 06:12:00,68.2,67.6,30.28,ENE,71,0.0,0.0,98,0.00,,,0.01,0,Wunderground v.1.15,2013-07-17 10:12:00,
2013-07-17 06:17:00,68.3,67.7,30.28,ENE,71,0.0,1.0,98,0.00,,,0.01,0,Wunderground v.1.15,2013-07-17 10:17:00,
2013-07-17 06:22:00,68.3,67.7,30.28,ENE,71,0.0,0.0,98,0.00,,,0.01,0,Wunderground v.1.15,2013-07-17 10:22:00,
2013-07-17 06:27:00,68.3,67.7,30.28,ENE,71,0.0,0.0,98,0.00,,,0.01,0,Wunderground v.1.15,2013-07-17 10:27:00,
2013-07-17 06:32:00,68.3,67.7,30.29,ENE,71,0.0,0.0,98,0.00,,,0.01,0,Wunderground v.1.15,2013-07-17 10:32:00,
2013-07-17 06:37:00,68.2,67.6,30.29,ENE,71,0.0,0.0,98,0.00,,,0.01,0,Wunderground v.1.15,2013-07-17 10:37:00,
2013-07-17 06:42:00,68.2,67.6,30.29,ENE,71,0.0,0.0,98,0.00,,,0.01,0,Wunderground v.1.15,2013-07-17 10:42:00,
2013-07-17 06:48:00,68.2,67.6,30.29,ENE,71,0.0,0.0,98,0.00,,,0.01,5,Wunderground v.1.15,2013-07-17 10:48:00,
2013-07-17 06:53:00,68.2,67.6,30.29,ENE,71,0.0,0.0,98,0.00,,,0.01,7,Wunderground v.1.15,2013-07-17 10:53:00,
2013-07-17 06:58:00,68.2,67.6,30.29,ENE,71,0.0,0.0,98,0.00,,,0.01,11,Wunderground v.1.15,2013-07-17 10:58:00,
2013-07-17 07:03:00,68.2,67.6,30.29,ENE,71,0.0,0.0,98,0.00,,,0.01,16,Wunderground v.1.15,2013-07-17 11:03:00,
2013-07-17 07:08:00,68.1,67.5,30.29,ENE,71,0.0,0.0,98,0.00,,,0.01,19,Wunderground v.1.15,2013-07-17 11:08:00,
2013-07-17 07:13:00,68.1,67.5,30.29,ENE,71,0.0,0.0,98,0.00,,,0.01,23,Wunderground v.1.15,2013-07-17 11:13:00,
2013-07-17 07:18:00,68.1,67.5,30.29,ENE,71,0.0,0.0,98,0.00,,,0.01,26,Wunderground v.1.15,2013-07-17 11:18:00,
2013-07-17 07:23:00,68.1,67.5,30.29,ENE,71,0.0,0.0,98,0.00,,,0.01,28,Wunderground v.1.15,2013-07-17 11:23:00,
2013-07-17 07:28:00,68.0,67.4,30.29,ENE,71,0.0,0.0,98,0.00,,,0.01,33,Wunderground v.1.15,2013-07-17 11:28:00,
2013-07-17 07:33:00,68.0,67.4,30.29,ENE,71,0.0,0.0,98,0.00,,,0.01,39,Wunderground v.1.15,2013-07-17 11:33:00,
2013-07-17 07:38:00,68.1,67.5,30.29,ENE,71,0.0,0.0,98,0.00,,,0.01,28,Wunderground v.1.15,2013-07-17 11:38:00,
2013-07-17 07:43:00,68.1,67.5,30.30,ENE,71,0.0,0.0,98,0.00,,,0.01,30,Wunderground v.1.15,2013-07-17 11:43:00,
2013-07-17 07:48:00,68.2,67.6,30.30,ENE,71,0.0,0.0,98,0.00,,,0.01,46,Wunderground v.1.15,2013-07-17 11:48:00,
2013-07-17 07:53:00,68.3,67.7,30.29,ENE,71,0.0,0.0,98,0.00,,,0.01,54,Wunderground v.1.15,2013-07-17 11:53:00,
2013-07-17 07:58:00,68.4,67.8,30.30,ENE,71,0.0,0.0,98,0.00,,,0.01,83,Wunderground v.1.15,2013-07-17 11:58:00,
2013-07-17 08:03:00,68.5,68.2,30.30,ENE,71,0.0,0.0,99,0.00,,,0.01,93,Wunderground v.1.15,2013-07-17 12:03:00,
2013-07-17 08:08:00,68.6,68.3,30.30,ENE,71,0.0,0.0,99,0.00,,,0.01,74,Wunderground v.1.15,2013-07-17 12:08:00,
2013-07-17 08:13:00,68.7,68.4,30.30,ENE,71,0.0,0.0,99,0.00,,,0.01,91,Wunderground v.1.15,2013-07-17 12:13:00,
2013-07-17 08:18:00,68.7,68.4,30.30,ENE,71,0.0,0.0,99,0.00,,,0.01,70,Wunderground v.1.15,2013-07-17 12:18:00,
2013-07-17 08:23:00,68.7,68.4,30.30,ENE,71,0.0,0.0,99,0.00,,,0.01,93,Wunderground v.1.15,2013-07-17 12:23:00,
2013-07-17 08:28:00,68.8,68.5,30.30,ENE,71,0.0,1.0,99,0.00,,,0.01,127,Wunderground v.1.15,2013-07-17 12:28:00,
2013-07-17 08:33:00,68.9,68.3,30.30,ENE,71,0.0,0.0,98,0.00,,,0.01,139,Wunderground v.1.15,2013-07-17 12:33:00,
2013-07-17 08:38:00,69.0,68.4,30.30,SSE,157,0.0,1.0,98,0.00,,,0.01,153,Wunderground v.1.15,2013-07-17 12:38:00,
2013-07-17 08:43:00,69.2,68.6,30.30,SSE,157,0.0,0.0,98,0.00,,,0.01,127,Wunderground v.1.15,2013-07-17 12:43:00,
2013-07-17 08:48:00,69.3,69.0,30.30,SSE,157,0.0,0.0,99,0.00,,,0.01,105,Wunderground v.1.15,2013-07-17 12:48:00,
2013-07-17 08:53:00,69.5,69.2,30.31,SSE,157,0.0,0.0,99,0.00,,,0.01,202,Wunderground v.1.15,2013-07-17 12:53:00,
2013-07-17 08:58:00,69.7,69.4,30.31,SSE,157,0.0,0.0,99,0.00,,,0.01,179,Wunderground v.1.15,2013-07-17 12:58:00,
2013-07-17 09:03:00,69.9,69.6,30.31,SSE,157,0.0,0.0,99,0.00,,,0.01,148,Wunderground v.1.15,2013-07-17 13:03:00,
2013-07-17 09:08:00,70.1,69.8,30.31,SSE,157,0.0,0.0,99,0.00,,,0.01,176,Wunderground v.1.15,2013-07-17 13:08:00,
2013-07-17 09:13:00,70.3,70.0,30.31,SSE,157,0.0,0.0,99,0.00,,,0.01,165,Wunderground v.1.15,2013-07-17 13:13:00,
2013-07-17 09:18:00,70.3,70.0,30.31,SSE,157,0.0,1.0,99,0.00,,,0.01,218,Wunderground v.1.15,2013-07-17 13:18:00,
2013-07-17 09:23:00,70.4,70.1,30.30,East,82,0.0,1.0,99,0.00,,,0.01,241,Wunderground v.1.15,2013-07-17 13:23:00,
2013-07-17 09:28:00,70.5,70.2,30.30,East,82,0.0,1.0,99,0.00,,,0.01,193,Wunderground v.1.15,2013-07-17 13:28:00,
2013-07-17 09:33:00,70.5,70.2,30.30,East,82,0.0,1.0,99,0.00,,,0.01,232,Wunderground v.1.15,2013-07-17 13:33:00,
2013-07-17 09:38:00,70.6,70.3,30.30,East,82,0.0,1.0,99,0.00,,,0.01,258,Wunderground v.1.15,2013-07-17 13:38:00,
2013-07-17 09:43:00,70.8,70.5,30.30,East,82,0.0,1.0,99,0.00,,,0.01,287,Wunderground v.1.15,2013-07-17 13:43:00,
2013-07-17 09:48:00,71.1,70.8,30.30,East,82,0.0,1.0,99,0.00,,,0.01,334,Wunderground v.1.15,2013-07-17 13:48:00,
2013-07-17 09:53:00,71.4,71.1,30.30,East,82,0.0,1.0,99,0.00,,,0.01,199,Wunderground v.1.15,2013-07-17 13:53:00,
2013-07-17 09:58:00,71.3,71.0,30.29,East,82,0.0,1.0,99,0.00,,,0.01,223,Wunderground v.1.15,2013-07-17 13:58:00,
2013-07-17 10:03:00,72.0,71.7,30.29,East,82,0.0,0.0,99,0.00,,,0.01,603,Wunderground v.1.15,2013-07-17 14:03:00,
2013-07-17 10:08:00,72.6,72.3,30.29,East,82,0.0,0.0,99,0.00,,,0.01,605,Wunderground v.1.15,2013-07-17 14:08:00,
2013-07-17 10:14:00,73.0,72.7,30.29,ENE,77,0.0,1.0,99,0.00,,,0.01,563,Wunderground v.1.15,2013-07-17 14:14:00,
2013-07-17 10:19:00,73.2,72.9,30.29,NE,48,0.0,1.0,99,0.00,,,0.01,596,Wunderground v.1.15,2013-07-17 14:19:00,
2013-07-17 10:24:00,73.5,73.2,30.29,East,101,0.0,1.0,99,0.00,,,0.01,647,Wunderground v.1.15,2013-07-17 14:24:00,
2013-07-17 10:29:00,73.9,73.3,30.29,East,101,1.0,1.0,98,0.00,,,0.01,661,Wunderground v.1.15,2013-07-17 14:29:00,
2013-07-17 10:34:00,74.5,73.9,30.29,East,101,0.0,0.0,98,0.00,,,0.01,673,Wunderground v.1.15,2013-07-17 14:34:00,
2013-07-17 10:39:00,74.8,73.9,30.29,East,101,0.0,1.0,97,0.00,,,0.01,682,Wunderground v.1.15,2013-07-17 14:39:00,
2013-07-17 10:44:00,75.2,73.7,30.29,East,80,0.0,1.0,95,0.00,,,0.01,694,Wunderground v.1.15,2013-07-17 14:44:00,
2013-07-17 10:49:00,75.5,73.0,30.28,East,80,0.0,1.0,92,0.00,,,0.01,708,Wunderground v.1.15,2013-07-17 14:49:00,
2013-07-17 10:54:00,76.4,73.9,30.28,NW,313,3.0,4.0,92,0.00,,,0.01,721,Wunderground v.1.15,2013-07-17 14:54:00,
2013-07-17 10:59:00,77.0,73.5,30.28,NW,309,0.0,4.0,89,0.00,,,0.01,731,Wunderground v.1.15,2013-07-17 14:59:00,
2013-07-17 11:04:00,77.9,73.7,30.28,SSE,167,0.0,1.0,87,0.00,,,0.01,740,Wunderground v.1.15,2013-07-17 15:04:00,
2013-07-17 11:09:00,78.7,74.5,30.28,SSE,157,0.0,4.0,87,0.00,,,0.01,759,Wunderground v.1.15,2013-07-17 15:09:00,
2013-07-17 11:14:00,79.4,74.1,30.28,West,271,0.0,3.0,84,0.00,,,0.01,744,Wunderground v.1.15,2013-07-17 15:14:00,
2013-07-17 11:19:00,79.7,74.1,30.27,West,279,2.0,3.0,83,0.00,,,0.01,636,Wunderground v.1.15,2013-07-17 15:19:00,
2013-07-17 11:24:00,80.0,74.4,30.28,West,279,0.0,2.0,83,0.00,,,0.01,570,Wunderground v.1.15,2013-07-17 15:24:00,
2013-07-17 11:29:00,80.5,74.1,30.28,West,279,0.0,2.0,81,0.00,,,0.01,731,Wunderground v.1.15,2013-07-17 15:29:00,
2013-07-17 11:34:00,81.1,74.7,30.27,SW,221,0.0,1.0,81,0.00,,,0.01,687,Wunderground v.1.15,2013-07-17 15:34:00,
2013-07-17 11:40:00,81.8,75.4,30.27,NW,306,1.0,1.0,81,0.00,,,0.01,759,Wunderground v.1.15,2013-07-17 15:40:00,
2013-07-17 11:45:00,82.0,74.5,30.27,WNW,300,0.0,4.0,78,0.00,,,0.01,772,Wunderground v.1.15,2013-07-17 15:45:00,
2013-07-17 11:50:00,82.4,75.2,30.27,WNW,284,3.0,3.0,79,0.00,,,0.01,798,Wunderground v.1.15,2013-07-17 15:50:00,
2013-07-17 11:55:00,82.6,74.7,30.27,NW,311,0.0,3.0,77,0.00,,,0.01,689,Wunderground v.1.15,2013-07-17 15:55:00,
2013-07-17 12:00:00,82.7,74.4,30.27,NW,326,0.0,1.0,76,0.00,,,0.01,733,Wunderground v.1.15,2013-07-17 16:00:00,
2013-07-17 12:05:00,83.0,74.6,30.27,WNW,289,5.0,5.0,76,0.00,,,0.01,788,Wunderground v.1.15,2013-07-17 16:05:00,
2013-07-17 12:10:00,83.3,74.5,30.27,WNW,286,1.0,1.0,75,0.00,,,0.01,874,Wunderground v.1.15,2013-07-17 16:10:00,
2013-07-17 12:15:00,83.7,74.1,30.27,NNE,28,0.0,4.0,73,0.00,,,0.01,877,Wunderground v.1.15,2013-07-17 16:15:00,
2013-07-17 12:20:00,84.1,73.3,30.26,SE,136,0.0,1.0,70,0.00,,,0.01,830,Wunderground v.1.15,2013-07-17 16:20:00,
2013-07-17 12:25:00,84.9,75.3,30.26,NE,46,0.0,3.0,73,0.00,,,0.01,911,Wunderground v.1.15,2013-07-17 16:25:00,
2013-07-17 12:30:00,85.6,74.3,30.26,East,80,0.0,0.0,69,0.00,,,0.01,972,Wunderground v.1.15,2013-07-17 16:30:00,
2013-07-17 12:35:00,86.3,73.1,30.25,East,93,1.0,3.0,65,0.00,,,0.01,965,Wunderground v.1.15,2013-07-17 16:35:00,
2013-07-17 12:40:00,86.9,72.8,30.26,ESE,108,0.0,0.0,63,0.00,,,0.01,940,Wunderground v.1.15,2013-07-17 16:40:00,
2013-07-17 12:45:00,87.5,72.9,30.26,ESE,103,0.0,7.0,62,0.00,,,0.01,949,Wunderground v.1.15,2013-07-17 16:45:00,
2013-07-17 12:50:00,87.7,74.0,30.26,ESE,119,0.0,2.0,64,0.00,,,0.01,983,Wunderground v.1.15,2013-07-17 16:50:00,
2013-07-17 12:55:00,87.7,71.1,30.26,NNE,15,3.0,5.0,58,0.00,,,0.01,1000,Wunderground v.1.15,2013-07-17 16:55:00,
2013-07-17 13:00:00,87.6,73.0,30.25,NNE,13,0.0,2.0,62,0.00,,,0.01,974,Wunderground v.1.15,2013-07-17 17:00:00,
2013-07-17 13:05:00,87.6,72.5,30.25,NNE,15,1.0,6.0,61,0.00,,,0.01,1027,Wunderground v.1.15,2013-07-17 17:05:00,
2013-07-17 13:10:00,87.4,70.8,30.25,NNE,14,0.0,4.0,58,0.00,,,0.01,1011,Wunderground v.1.15,2013-07-17 17:10:00,
2013-07-17 13:15:00,87.5,71.9,30.25,North,355,0.0,5.0,60,0.00,,,0.01,912,Wunderground v.1.15,2013-07-17 17:15:00,
2013-07-17 13:20:00,87.9,71.3,30.25,West,265,0.0,2.0,58,0.00,,,0.01,1121,Wunderground v.1.15,2013-07-17 17:20:00,
2013-07-17 13:25:00,88.3,70.1,30.24,SW,235,0.0,2.0,55,0.00,,,0.01,543,Wunderground v.1.15,2013-07-17 17:25:00,
2013-07-17 13:30:00,88.9,73.2,30.24,South,184,0.0,1.0,60,0.00,,,0.01,1171,Wunderground v.1.15,2013-07-17 17:30:00,
2013-07-17 13:35:00,89.7,73.0,30.24,SSE,153,0.0,1.0,58,0.00,,,0.01,856,Wunderground v.1.15,2013-07-17 17:35:00,
2013-07-17 13:40:00,90.2,72.4,30.24,NE,35,0.0,1.0,56,0.00,,,0.01,1030,Wunderground v.1.15,2013-07-17 17:40:00,
2013-07-17 13:45:00,90.7,71.8,30.24,NE,36,0.0,1.0,54,0.00,,,0.01,1062,Wunderground v.1.15,2013-07-17 17:45:00,
2013-07-17 13:50:00,91.2,72.8,30.24,NNW,336,3.0,5.0,55,0.00,,,0.01,1013,Wunderground v.1.15,2013-07-17 17:50:00,
2013-07-17 13:55:00,91.3,71.8,30.23,ENE,58,0.0,5.0,53,0.00,,,0.01,1011,Wunderground v.1.15,2013-07-17 17:55:00,
2013-07-17 14:00:00,91.4,73.5,30.24,East,80,1.0,1.0,56,0.00,,,0.01,1065,Wunderground v.1.15,2013-07-17 18:00:00,
2013-07-17 14:05:00,91.7,72.1,30.23,NNW,327,0.0,5.0,53,0.00,,,0.01,1132,Wunderground v.1.15,2013-07-17 18:05:00,
2013-07-17 14:10:00,91.1,72.1,30.23,North,5,3.0,4.0,54,0.00,,,0.01,610,Wunderground v.1.15,2013-07-17 18:10:00,
2013-07-17 14:16:00,90.2,72.4,30.23,NW,315,3.0,5.0,56,0.00,,,0.01,547,Wunderground v.1.15,2013-07-17 18:16:00,
2013-07-17 14:21:00,89.6,73.4,30.22,NNW,328,1.0,2.0,59,0.00,,,0.01,510,Wunderground v.1.15,2013-07-17 18:21:00,
2013-07-17 14:26:00,89.4,71.6,30.22,WNW,288,0.0,3.0,56,0.00,,,0.01,981,Wunderground v.1.15,2013-07-17 18:26:00,
2013-07-17 14:31:00,89.4,72.2,30.22,NW,309,0.0,1.0,57,0.00,,,0.01,940,Wunderground v.1.15,2013-07-17 18:31:00,
2013-07-17 14:36:00,89.5,72.8,30.22,NNE,16,2.0,4.0,58,0.00,,,0.01,930,Wunderground v.1.15,2013-07-17 18:36:00,
2013-07-17 14:41:00,89.8,72.0,30.22,NE,54,0.0,1.0,56,0.00,,,0.01,958,Wunderground v.1.15,2013-07-17 18:41:00,
2013-07-17 14:46:00,90.0,73.2,30.22,NW,322,5.0,6.0,58,0.00,,,0.01,969,Wunderground v.1.15,2013-07-17 18:46:00,
2013-07-17 14:51:00,90.3,70.3,30.21,ESE,115,2.0,5.0,52,0.00,,,0.01,984,Wunderground v.1.15,2013-07-17 18:51:00,
2013-07-17 14:56:00,90.2,71.3,30.21,NNW,327,3.0,5.0,54,0.00,,,0.01,225,Wunderground v.1.15,2013-07-17 18:56:00,
2013-07-17 15:01:00,90.0,72.7,30.20,NNW,338,0.0,1.0,57,0.00,,,0.01,874,Wunderground v.1.15,2013-07-17 19:01:00,
2013-07-17 15:06:00,89.7,71.4,30.20,West,274,0.0,6.0,55,0.00,,,0.01,211,Wunderground v.1.15,2013-07-17 19:06:00,
2013-07-17 15:11:00,89.6,71.8,30.20,WNW,284,0.0,3.0,56,0.00,,,0.01,998,Wunderground v.1.15,2013-07-17 19:11:00,
2013-07-17 15:16:00,89.7,73.0,30.19,North,9,0.0,3.0,58,0.00,,,0.01,988,Wunderground v.1.15,2013-07-17 19:16:00,
2013-07-17 15:21:00,90.0,73.7,30.19,North,349,6.0,8.0,59,0.00,,,0.01,940,Wunderground v.1.15,2013-07-17 19:21:00,
2013-07-17 15:26:00,89.5,74.8,30.19,NE,49,2.0,8.0,62,0.00,,,0.01,935,Wunderground v.1.15,2013-07-17 19:26:00,
2013-07-17 15:31:00,89.2,75.9,30.18,West,277,4.0,7.0,65,0.00,,,0.01,884,Wunderground v.1.15,2013-07-17 19:31:00,
2013-07-17 15:36:00,88.7,75.0,30.18,NNW,327,6.0,10.0,64,0.00,,,0.01,868,Wunderground v.1.15,2013-07-17 19:36:00,
2013-07-17 15:41:00,87.9,75.1,30.18,NW,316,7.0,9.0,66,0.00,,,0.01,847,Wunderground v.1.15,2013-07-17 19:41:00,
2013-07-17 15:47:00,87.3,73.6,30.18,NW,307,8.0,9.0,64,0.00,,,0.01,853,Wunderground v.1.15,2013-07-17 19:47:00,
2013-07-17 15:52:00,87.1,76.1,30.17,NW,315,8.0,8.0,70,0.00,,,0.01,870,Wunderground v.1.15,2013-07-17 19:52:00,
2013-07-17 15:57:00,87.2,75.3,30.17,North,9,2.0,8.0,68,0.00,,,0.01,780,Wunderground v.1.15,2013-07-17 19:57:00,
2013-07-17 16:02:00,87.3,75.9,30.17,West,272,5.0,8.0,69,0.00,,,0.01,649,Wunderground v.1.15,2013-07-17 20:02:00,
2013-07-17 16:07:00,87.1,73.4,30.17,NW,322,8.0,9.0,64,0.00,,,0.01,765,Wunderground v.1.15,2013-07-17 20:07:00,
2013-07-17 16:12:00,86.8,70.8,30.17,WNW,284,4.0,13.0,59,0.00,,,0.01,568,Wunderground v.1.15,2013-07-17 20:12:00,
2013-07-17 16:17:00,86.8,72.2,30.17,NW,312,4.0,13.0,62,0.00,,,0.01,780,Wunderground v.1.15,2013-07-17 20:17:00,
2013-07-17 16:22:00,86.9,71.3,30.18,WNW,285,7.0,12.0,60,0.00,,,0.01,522,Wunderground v.1.15,2013-07-17 20:22:00,
2013-07-17 16:27:00,86.8,71.2,30.17,NW,313,6.0,12.0,60,0.00,,,0.01,737,Wunderground v.1.15,2013-07-17 20:27:00,
2013-07-17 16:32:00,86.9,73.3,30.16,NNW,333,4.0,5.0,64,0.00,,,0.01,742,Wunderground v.1.15,2013-07-17 20:32:00,
2013-07-17 16:37:00,87.0,72.9,30.16,NW,305,6.0,8.0,63,0.00,,,0.01,262,Wunderground v.1.15,2013-07-17 20:37:00,
2013-07-17 16:42:00,86.5,73.3,30.16,NNW,327,9.0,9.0,65,0.00,,,0.01,195,Wunderground v.1.15,2013-07-17 20:42:00,
2013-07-17 16:47:00,85.9,73.2,30.16,WNW,298,6.0,9.0,66,0.00,,,0.01,156,Wunderground v.1.15,2013-07-17 20:47:00,
2013-07-17 16:52:00,85.3,73.5,30.16,NW,326,1.0,8.0,68,0.00,,,0.01,128,Wunderground v.1.15,2013-07-17 20:52:00,
2013-07-17 16:57:00,84.8,73.9,30.16,NNW,347,0.0,8.0,70,0.00,,,0.01,105,Wunderground v.1.15,2013-07-17 20:57:00,
2013-07-17 17:02:00,84.2,73.8,30.16,NNW,344,0.0,6.0,71,0.00,,,0.01,77,Wunderground v.1.15,2013-07-17 21:02:00,
2013-07-17 17:07:00,83.8,74.2,30.16,NNW,333,0.0,6.0,73,0.00,,,0.01,58,Wunderground v.1.15,2013-07-17 21:07:00,
2013-07-17 17:12:00,83.3,74.1,30.15,NW,325,0.0,3.0,74,0.00,,,0.01,46,Wunderground v.1.15,2013-07-17 21:12:00,
2013-07-17 17:17:00,83.0,74.3,30.15,NW,323,0.0,3.0,75,0.00,,,0.01,37,Wunderground v.1.15,2013-07-17 21:17:00,
2013-07-17 17:22:00,82.9,74.6,30.15,NNW,336,0.0,3.0,76,0.00,,,0.01,32,Wunderground v.1.15,2013-07-17 21:22:00,
2013-07-17 17:27:00,82.6,74.3,30.15,NW,304,2.0,3.0,76,0.00,,,0.01,26,Wunderground v.1.15,2013-07-17 21:27:00,
2013-07-17 17:32:00,82.1,73.4,30.15,NNW,336,0.0,7.0,75,0.00,,,0.01,25,Wunderground v.1.15,2013-07-17 21:32:00,
2013-07-17 17:37:00,82.0,73.7,30.15,WNW,302,0.0,7.0,76,0.00,,,0.01,23,Wunderground v.1.15,2013-07-17 21:37:00,
2013-07-17 17:42:00,81.8,73.5,30.15,NW,311,0.0,4.0,76,0.00,,,0.01,23,Wunderground v.1.15,2013-07-17 21:42:00,
2013-07-17 17:47:00,81.5,73.2,30.15,NNW,338,5.0,5.0,76,0.00,,,0.01,25,Wunderground v.1.15,2013-07-17 21:47:00,
2013-07-17 17:52:00,81.3,73.4,30.15,NNW,327,3.0,4.0,77,0.00,,,0.01,26,Wunderground v.1.15,2013-07-17 21:52:00,
2013-07-17 17:57:00,81.1,73.2,30.15,NW,320,0.0,5.0,77,0.00,,,0.01,26,Wunderground v.1.15,2013-07-17 21:57:00,
2013-07-17 18:02:00,81.0,73.5,30.15,NNW,333,3.0,7.0,78,0.00,,,0.01,25,Wunderground v.1.15,2013-07-17 22:02:00,
2013-07-17 18:07:00,80.8,72.5,30.16,North,5,5.0,7.0,76,0.00,,,0.01,26,Wunderground v.1.15,2013-07-17 22:07:00,
2013-07-17 18:12:00,80.7,72.0,30.16,North,5,0.0,5.0,75,0.00,,,0.01,32,Wunderground v.1.15,2013-07-17 22:12:00,
2013-07-17 18:17:00,80.8,72.5,30.16,North,360,0.0,5.0,76,0.00,,,0.01,40,Wunderground v.1.15,2013-07-17 22:17:00,
2013-07-17 18:22:00,80.8,73.3,30.17,North,360,0.0,1.0,78,0.00,,,0.01,40,Wunderground v.1.15,2013-07-17 22:22:00,
2013-07-17 18:27:00,80.8,73.3,30.16,North,360,0.0,1.0,78,0.00,,,0.01,42,Wunderground v.1.15,2013-07-17 22:27:00,
2013-07-17 18:32:00,80.5,73.8,30.15,NNW,346,0.0,3.0,80,0.00,,,0.01,40,Wunderground v.1.15,2013-07-17 22:32:00,
2013-07-17 18:37:00,80.2,73.8,30.15,NNW,346,0.0,3.0,81,0.00,,,0.01,35,Wunderground v.1.15,2013-07-17 22:37:00,
2013-07-17 18:42:00,79.9,73.9,30.16,NNW,346,0.0,0.0,82,0.00,,,0.01,30,Wunderground v.1.15,2013-07-17 22:42:00,
2013-07-17 18:47:00,79.7,74.1,30.16,NNW,346,0.0,0.0,83,0.00,,,0.01,21,Wunderground v.1.15,2013-07-17 22:47:00,
2013-07-17 18:52:00,79.6,74.0,30.17,NNW,346,0.0,0.0,83,0.00,,,0.01,19,Wunderground v.1.15,2013-07-17 22:52:00,
2013-07-17 18:57:00,79.4,74.1,30.17,ENE,63,0.0,1.0,84,0.00,,,0.01,16,Wunderground v.1.15,2013-07-17 22:57:00,
2013-07-17 19:02:00,78.8,73.6,30.18,SE,127,2.0,4.0,84,0.00,,,0.01,14,Wunderground v.1.15,2013-07-17 23:02:00,
2013-07-17 19:07:00,78.1,73.2,30.18,SE,125,6.0,8.0,85,0.00,,,0.01,14,Wunderground v.1.15,2013-07-17 23:07:00,
2013-07-17 19:12:00,77.3,73.1,30.20,SE,142,8.0,14.0,87,0.00,,,0.02,12,Wunderground v.1.15,2013-07-17 23:12:00,
2013-07-17 19:17:00,75.9,71.4,30.20,South,180,2.0,16.0,86,0.00,,,0.02,9,Wunderground v.1.15,2013-07-17 23:17:00,
2013-07-17 19:22:00,75.1,71.0,30.20,East,98,8.0,12.0,87,0.06,,,0.03,11,Wunderground v.1.15,2013-07-17 23:22:00,
2013-07-17 19:27:00,74.4,70.9,30.19,SE,136,6.0,13.0,89,0.06,,,0.03,14,Wunderground v.1.15,2013-07-17 23:27:00,
2013-07-17 19:32:00,74.1,71.0,30.18,SSE,151,1.0,7.0,90,0.05,,,0.03,12,Wunderground v.1.15,2013-07-17 23:32:00,
2013-07-17 19:37:00,73.9,70.8,30.19,ESE,104,4.0,9.0,90,0.00,,,0.03,14,Wunderground v.1.15,2013-07-17 23:37:00,
2013-07-17 19:42:00,73.6,70.8,30.19,SE,130,2.0,6.0,91,0.00,,,0.03,14,Wunderground v.1.15,2013-07-17 23:42:00,
2013-07-17 19:47:00,73.4,70.9,30.19,SE,136,0.0,7.0,92,0.00,,,0.03,16,Wunderground v.1.15,2013-07-17 23:47:00,
2013-07-17 19:52:00,73.4,70.9,30.19,East,80,0.0,2.0,92,0.00,,,0.03,18,Wunderground v.1.15,2013-07-17 23:52:00,
2013-07-17 19:57:00,73.3,70.8,30.19,East,80,0.0,2.0,92,0.00,,,0.03,16,Wunderground v.1.15,2013-07-17 23:57:00,
2013-07-17 20:02:00,73.1,71.0,30.19,East,80,0.0,0.0,93,0.00,,,0.03,14,Wunderground v.1.15,2013-07-18 00:02:00,
2013-07-17 20:07:00,73.0,70.9,30.20,ESE,104,0.0,4.0,93,0.00,,,0.03,9,Wunderground v.1.15,2013-07-18 00:07:00,
2013-07-17 20:12:00,72.7,70.6,30.20,ESE,118,2.0,6.0,93,0.00,,,0.03,9,Wunderground v.1.15,2013-07-18 00:12:00,
2013-07-17 20:17:00,72.4,70.3,30.19,ENE,77,0.0,6.0,93,0.00,,,0.03,7,Wunderground v.1.15,2013-07-18 00:17:00,
2013-07-17 20:22:00,72.3,70.2,30.19,SE,133,0.0,1.0,93,0.00,,,0.03,5,Wunderground v.1.15,2013-07-18 00:22:00,
2013-07-17 20:27:00,72.3,70.2,30.19,SE,133,0.0,1.0,93,0.00,,,0.03,0,Wunderground v.1.15,2013-07-18 00:27:00,
2013-07-17 20:32:00,72.2,70.1,30.19,SE,133,0.0,0.0,93,0.00,,,0.03,0,Wunderground v.1.15,2013-07-18 00:32:00,
2013-07-17 20:37:00,72.1,70.0,30.19,SE,133,0.0,0.0,93,0.00,,,0.03,0,Wunderground v.1.15,2013-07-18 00:37:00,
2013-07-17 20:42:00,72.1,70.0,30.19,SE,133,0.0,0.0,93,0.00,,,0.03,0,Wunderground v.1.15,2013-07-18 00:42:00,
2013-07-17 20:47:00,72.0,69.9,30.19,SE,133,0.0,1.0,93,0.00,,,0.03,0,Wunderground v.1.15,2013-07-18 00:47:00,
2013-07-17 20:48:00,72.0,69.9,30.19,SE,133,0.0,1.0,93,0.00,,,0.03,0,Wunderground v.1.15,2013-07-18 00:48:00,
2013-07-17 20:53:00,71.9,69.8,30.19,SE,133,0.0,2.0,93,0.00,,,0.03,0,Wunderground v.1.15,2013-07-18 00:53:00,
2013-07-17 20:58:00,71.9,70.1,30.19,SE,133,0.0,2.0,94,0.00,,,0.03,0,Wunderground v.1.15,2013-07-18 00:58:00,
2013-07-17 21:03:00,71.9,70.1,30.18,SE,132,0.0,0.0,94,0.00,,,0.03,0,Wunderground v.1.15,2013-07-18 01:03:00,
2013-07-17 21:08:00,71.9,70.1,30.19,SE,133,0.0,0.0,94,0.00,,,0.03,0,Wunderground v.1.15,2013-07-18 01:08:00,
2013-07-17 21:14:00,71.8,70.0,30.20,SE,133,0.0,0.0,94,0.00,,,0.03,0,Wunderground v.1.15,2013-07-18 01:14:00,
2013-07-17 21:19:00,71.7,69.9,30.20,SE,129,2.0,5.0,94,0.00,,,0.03,0,Wunderground v.1.15,2013-07-18 01:19:00,
2013-07-17 21:24:00,71.5,69.7,30.21,ESE,120,6.0,8.0,94,0.00,,,0.03,0,Wunderground v.1.15,2013-07-18 01:24:00,
2013-07-17 21:29:00,71.4,69.6,30.21,SE,126,5.0,11.0,94,0.00,,,0.03,0,Wunderground v.1.15,2013-07-18 01:29:00,
2013-07-17 21:34:00,71.2,69.4,30.21,SSE,153,6.0,9.0,94,0.00,,,0.03,0,Wunderground v.1.15,2013-07-18 01:34:00,
2013-07-17 21:39:00,71.0,69.2,30.22,SE,141,8.0,11.0,94,0.00,,,0.03,0,Wunderground v.1.15,2013-07-18 01:39:00,
2013-07-17 21:44:00,70.9,69.1,30.23,SE,135,9.0,10.0,94,0.00,,,0.03,0,Wunderground v.1.15,2013-07-18 01:44:00,
2013-07-17 21:49:00,71.0,69.2,30.22,SSE,156,6.0,10.0,94,0.00,,,0.03,0,Wunderground v.1.15,2013-07-18 01:49:00,
2013-07-17 21:54:00,71.0,69.2,30.23,SE,136,5.0,11.0,94,0.00,,,0.03,0,Wunderground v.1.15,2013-07-18 01:54:00,
2013-07-17 21:59:00,71.0,69.2,30.23,ESE,120,6.0,11.0,94,0.00,,,0.03,0,Wunderground v.1.15,2013-07-18 01:59:00,
2013-07-17 22:04:00,70.9,68.8,30.23,SE,146,5.0,8.0,93,0.00,,,0.03,0,Wunderground v.1.15,2013-07-18 02:04:00,
2013-07-17 22:09:00,70.8,68.7,30.23,SE,138,5.0,8.0,93,0.00,,,0.04,0,Wunderground v.1.15,2013-07-18 02:09:00,
2013-07-17 22:14:00,70.7,68.6,30.23,SE,134,6.0,7.0,93,0.00,,,0.04,0,Wunderground v.1.15,2013-07-18 02:14:00,
2013-07-17 22:19:00,70.7,68.6,30.23,SE,132,0.0,7.0,93,0.00,,,0.04,0,Wunderground v.1.15,2013-07-18 02:19:00,
2013-07-17 22:24:00,70.7,68.6,30.23,NE,34,0.0,2.0,93,0.00,,,0.04,0,Wunderground v.1.15,2013-07-18 02:24:00,
2013-07-17 22:29:00,70.6,68.5,30.23,NNE,17,0.0,2.0,93,0.00,,,0.04,0,Wunderground v.1.15,2013-07-18 02:29:00,
2013-07-17 22:34:00,70.6,68.5,30.23,NNE,17,0.0,1.0,93,0.00,,,0.04,0,Wunderground v.1.15,2013-07-18 02:34:00,
2013-07-17 22:39:00,70.6,68.8,30.23,ENE,77,0.0,1.0,94,0.00,,,0.04,0,Wunderground v.1.15,2013-07-18 02:39:00,
2013-07-17 22:44:00,70.6,68.8,30.23,North,9,0.0,0.0,94,0.00,,,0.04,0,Wunderground v.1.15,2013-07-18 02:44:00,
2013-07-17 22:49:00,70.4,68.3,30.23,WNW,282,0.0,3.0,93,0.00,,,0.04,0,Wunderground v.1.15,2013-07-18 02:49:00,
2013-07-17 22:54:00,70.3,68.2,30.23,WSW,244,0.0,2.0,93,0.00,,,0.04,0,Wunderground v.1.15,2013-07-18 02:54:00,
2013-07-17 22:59:00,70.3,68.2,30.23,WSW,244,0.0,3.0,93,0.00,,,0.04,0,Wunderground v.1.15,2013-07-18 02:59:00,
2013-07-17 23:04:00,70.3,68.2,30.24,WSW,244,0.0,1.0,93,0.00,,,0.04,0,Wunderground v.1.15,2013-07-18 03:04:00,
2013-07-17 23:09:00,70.4,68.6,30.24,WSW,243,0.0,1.0,94,0.00,,,0.04,0,Wunderground v.1.15,2013-07-18 03:09:00,
2013-07-17 23:14:00,70.4,68.6,30.25,East,87,0.0,1.0,94,0.00,,,0.05,0,Wunderground v.1.15,2013-07-18 03:14:00,
2013-07-17 23:20:00,70.2,68.4,30.25,East,92,0.0,0.0,94,0.00,,,0.05,0,Wunderground v.1.15,2013-07-18 03:20:00,
2013-07-17 23:25:00,70.1,68.3,30.25,East,92,0.0,0.0,94,0.00,,,0.05,0,Wunderground v.1.15,2013-07-18 03:25:00,
2013-07-17 23:30:00,70.0,68.2,30.25,East,92,0.0,0.0,94,0.00,,,0.05,0,Wunderground v.1.15,2013-07-18 03:30:00,
2013-07-17 23:35:00,70.0,68.5,30.25,East,92,0.0,1.0,95,0.00,,,0.05,0,Wunderground v.1.15,2013-07-18 03:35:00,
2013-07-17 23:40:00,69.9,68.4,30.26,East,92,0.0,0.0,95,0.00,,,0.05,0,Wunderground v.1.15,2013-07-18 03:40:00,
2013-07-17 23:45:00,69.7,68.2,30.25,ESE,105,1.0,4.0,95,0.00,,,0.05,0,Wunderground v.1.15,2013-07-18 03:45:00,
2013-07-17 23:50:00,69.6,68.1,30.26,ESE,117,0.0,1.0,95,0.00,,,0.05,0,Wunderground v.1.15,2013-07-18 03:50:00,
2013-07-17 23:55:00,69.5,68.3,30.25,SE,136,0.0,2.0,96,0.00,,,0.05,0,Wunderground v.1.15,2013-07-18 03:55:00,